sensor_id;sensor_type;location;lat;lon;timestamp;temperature;humidity
20479;DHT22;10398;52.490;13.434;2022-10-16T00:01:22;15.60;99.90
20479;DHT22;10398;52.490;13.434;2022-10-16T00:03:49;15.60;99.90
20479;DHT22;10398;52.490;13.434;2022-10-16T00:06:17;15.60;99.90
20479;DHT22;10398;52.490;13.434;2022-10-16T00:08:44;15.60;99.90
20479;DHT22;10398;52.490;13.434;2022-10-16T00:11:18;15.60;99.90
20479;DHT22;10398;52.490;13.434;2022-10-16T00:13:46;15.70;99.90
20479;DHT22;10398;52.490;13.434;2022-10-16T00:16:13;15.60;99.90
20479;DHT22;10398;52.490;13.434;2022-10-16T00:18:39;15.60;99.90
20479;DHT22;10398;52.490;13.434;2022-10-16T00:21:08;15.60;99.90
20479;DHT22;10398;52.490;13.434;2022-10-16T00:23:34;15.70;99.90
20479;DHT22;10398;52.490;13.434;2022-10-16T00:26:04;15.70;99.90
20479;DHT22;10398;52.490;13.434;2022-10-16T00:28:30;15.70;99.90
20479;DHT22;10398;52.490;13.434;2022-10-16T00:30:56;15.70;99.90
20479;DHT22;10398;52.490;13.434;2022-10-16T00:33:22;15.70;99.90
20479;DHT22;10398;52.490;13.434;2022-10-16T00:35:48;15.80;99.90
20479;DHT22;10398;52.490;13.434;2022-10-16T00:38:13;15.80;99.90
20479;DHT22;10398;52.490;13.434;2022-10-16T00:40:39;15.80;99.90
20479;DHT22;10398;52.490;13.434;2022-10-16T00:45:58;15.80;99.90
20479;DHT22;10398;52.490;13.434;2022-10-16T00:48:24;15.80;99.90
20479;DHT22;10398;52.490;13.434;2022-10-16T00:50:50;15.80;99.90
20479;DHT22;10398;52.490;13.434;2022-10-16T00:53:16;15.90;99.90
20479;DHT22;10398;52.490;13.434;2022-10-16T00:55:42;15.90;99.90
20479;DHT22;10398;52.490;13.434;2022-10-16T00:58:08;15.90;99.90
20479;DHT22;10398;52.490;13.434;2022-10-16T01:00:34;15.90;99.90
20479;DHT22;10398;52.490;13.434;2022-10-16T01:03:01;15.90;99.90
20479;DHT22;10398;52.490;13.434;2022-10-16T01:05:34;15.80;99.90
20479;DHT22;10398;52.490;13.434;2022-10-16T01:10:39;15.90;99.90
20479;DHT22;10398;52.490;13.434;2022-10-16T01:13:08;15.90;99.90
20479;DHT22;10398;52.490;13.434;2022-10-16T01:18:18;15.90;99.90
20479;DHT22;10398;52.490;13.434;2022-10-16T01:20:54;15.90;99.90
20479;DHT22;10398;52.490;13.434;2022-10-16T01:28:55;15.90;99.90
20479;DHT22;10398;52.490;13.434;2022-10-16T01:31:26;15.90;99.90
20479;DHT22;10398;52.490;13.434;2022-10-16T01:34:05;15.90;99.90
20479;DHT22;10398;52.490;13.434;2022-10-16T01:36:37;15.90;99.90
20479;DHT22;10398;52.490;13.434;2022-10-16T01:39:06;15.90;99.90
20479;DHT22;10398;52.490;13.434;2022-10-16T01:41:38;16.00;99.90
20479;DHT22;10398;52.490;13.434;2022-10-16T01:46:34;15.90;99.90
20479;DHT22;10398;52.490;13.434;2022-10-16T01:49:02;15.90;99.90
20479;DHT22;10398;52.490;13.434;2022-10-16T01:51:28;15.90;99.90
20479;DHT22;10398;52.490;13.434;2022-10-16T01:53:56;15.90;99.90
20479;DHT22;10398;52.490;13.434;2022-10-16T01:56:24;15.80;99.90
20479;DHT22;10398;52.490;13.434;2022-10-16T01:59:12;15.80;99.90
20479;DHT22;10398;52.490;13.434;2022-10-16T02:01:42;15.80;99.90
20479;DHT22;10398;52.490;13.434;2022-10-16T02:04:18;15.80;99.90
20479;DHT22;10398;52.490;13.434;2022-10-16T02:06:44;15.80;99.90
20479;DHT22;10398;52.490;13.434;2022-10-16T02:09:10;15.70;99.90
20479;DHT22;10398;52.490;13.434;2022-10-16T02:11:36;15.80;99.90
20479;DHT22;10398;52.490;13.434;2022-10-16T02:14:04;15.80;99.90
20479;DHT22;10398;52.490;13.434;2022-10-16T02:16:43;15.80;99.90
20479;DHT22;10398;52.490;13.434;2022-10-16T02:19:09;15.90;99.90
20479;DHT22;10398;52.490;13.434;2022-10-16T02:24:18;15.80;99.90
20479;DHT22;10398;52.490;13.434;2022-10-16T02:27:05;15.80;99.90
20479;DHT22;10398;52.490;13.434;2022-10-16T02:29:39;15.80;99.90
20479;DHT22;10398;52.490;13.434;2022-10-16T02:32:07;15.80;99.90
20479;DHT22;10398;52.490;13.434;2022-10-16T02:34:34;15.80;99.90
20479;DHT22;10398;52.490;13.434;2022-10-16T02:37:02;15.80;99.90
20479;DHT22;10398;52.490;13.434;2022-10-16T02:39:29;15.80;99.90
20479;DHT22;10398;52.490;13.434;2022-10-16T02:41:55;15.90;99.90
20479;DHT22;10398;52.490;13.434;2022-10-16T02:44:21;15.80;99.90
20479;DHT22;10398;52.490;13.434;2022-10-16T02:46:47;15.80;99.90
20479;DHT22;10398;52.490;13.434;2022-10-16T02:49:12;15.80;99.90
20479;DHT22;10398;52.490;13.434;2022-10-16T02:51:38;15.80;99.90
20479;DHT22;10398;52.490;13.434;2022-10-16T02:54:03;15.80;99.90
20479;DHT22;10398;52.490;13.434;2022-10-16T02:56:29;15.90;99.90
20479;DHT22;10398;52.490;13.434;2022-10-16T02:58:56;15.80;99.90
20479;DHT22;10398;52.490;13.434;2022-10-16T03:01:22;15.80;99.90
20479;DHT22;10398;52.490;13.434;2022-10-16T03:03:48;15.80;99.90
20479;DHT22;10398;52.490;13.434;2022-10-16T03:06:13;15.90;99.90
20479;DHT22;10398;52.490;13.434;2022-10-16T03:08:39;15.90;99.90
20479;DHT22;10398;52.490;13.434;2022-10-16T03:11:05;15.90;99.90
20479;DHT22;10398;52.490;13.434;2022-10-16T03:13:30;15.80;99.90
20479;DHT22;10398;52.490;13.434;2022-10-16T03:15:56;15.80;99.90
20479;DHT22;10398;52.490;13.434;2022-10-16T03:18:21;15.80;99.90
20479;DHT22;10398;52.490;13.434;2022-10-16T03:20:47;15.80;99.90
20479;DHT22;10398;52.490;13.434;2022-10-16T03:23:13;15.80;99.90
20479;DHT22;10398;52.490;13.434;2022-10-16T03:25:39;15.80;99.90
20479;DHT22;10398;52.490;13.434;2022-10-16T03:28:05;15.80;99.90
20479;DHT22;10398;52.490;13.434;2022-10-16T03:30:31;15.80;99.90
20479;DHT22;10398;52.490;13.434;2022-10-16T03:32:56;15.80;99.90
20479;DHT22;10398;52.490;13.434;2022-10-16T03:35:23;15.80;99.90
20479;DHT22;10398;52.490;13.434;2022-10-16T03:37:50;15.80;99.90
20479;DHT22;10398;52.490;13.434;2022-10-16T03:40:16;15.80;99.90
20479;DHT22;10398;52.490;13.434;2022-10-16T03:42:42;15.70;99.90
20479;DHT22;10398;52.490;13.434;2022-10-16T03:45:09;15.70;99.90
20479;DHT22;10398;52.490;13.434;2022-10-16T03:47:35;15.70;99.90
20479;DHT22;10398;52.490;13.434;2022-10-16T03:50:00;15.60;99.90
20479;DHT22;10398;52.490;13.434;2022-10-16T03:52:26;15.60;99.90
20479;DHT22;10398;52.490;13.434;2022-10-16T03:54:51;15.60;99.90
20479;DHT22;10398;52.490;13.434;2022-10-16T03:57:17;15.70;99.90
20479;DHT22;10398;52.490;13.434;2022-10-16T03:59:43;15.70;99.90
20479;DHT22;10398;52.490;13.434;2022-10-16T04:02:09;15.70;99.90
20479;DHT22;10398;52.490;13.434;2022-10-16T04:04:34;15.60;99.90
20479;DHT22;10398;52.490;13.434;2022-10-16T04:07:00;15.60;99.90
20479;DHT22;10398;52.490;13.434;2022-10-16T04:09:26;15.60;99.90
20479;DHT22;10398;52.490;13.434;2022-10-16T04:11:51;15.60;99.90
20479;DHT22;10398;52.490;13.434;2022-10-16T04:14:17;15.60;99.90
20479;DHT22;10398;52.490;13.434;2022-10-16T04:16:43;15.60;99.90
20479;DHT22;10398;52.490;13.434;2022-10-16T04:19:09;15.60;99.90
20479;DHT22;10398;52.490;13.434;2022-10-16T04:21:35;15.50;99.90
20479;DHT22;10398;52.490;13.434;2022-10-16T04:24:01;15.60;99.90
20479;DHT22;10398;52.490;13.434;2022-10-16T04:26:27;15.60;99.90
20479;DHT22;10398;52.490;13.434;2022-10-16T04:28:52;15.50;99.90
20479;DHT22;10398;52.490;13.434;2022-10-16T04:31:18;15.50;99.90
20479;DHT22;10398;52.490;13.434;2022-10-16T04:33:44;15.50;99.90
20479;DHT22;10398;52.490;13.434;2022-10-16T04:36:09;15.50;99.90
20479;DHT22;10398;52.490;13.434;2022-10-16T04:38:35;15.40;99.90
20479;DHT22;10398;52.490;13.434;2022-10-16T04:41:03;15.40;99.90
20479;DHT22;10398;52.490;13.434;2022-10-16T04:43:29;15.50;99.90
20479;DHT22;10398;52.490;13.434;2022-10-16T04:45:54;15.50;99.90
20479;DHT22;10398;52.490;13.434;2022-10-16T04:48:21;15.50;99.90
20479;DHT22;10398;52.490;13.434;2022-10-16T04:50:47;15.40;99.90
20479;DHT22;10398;52.490;13.434;2022-10-16T04:53:13;15.40;99.90
20479;DHT22;10398;52.490;13.434;2022-10-16T04:55:39;15.40;99.90
20479;DHT22;10398;52.490;13.434;2022-10-16T04:58:04;15.40;99.90
20479;DHT22;10398;52.490;13.434;2022-10-16T05:00:30;15.40;99.90
20479;DHT22;10398;52.490;13.434;2022-10-16T05:02:56;15.40;99.90
20479;DHT22;10398;52.490;13.434;2022-10-16T05:05:22;15.30;99.90
20479;DHT22;10398;52.490;13.434;2022-10-16T05:07:48;15.30;99.90
20479;DHT22;10398;52.490;13.434;2022-10-16T05:10:15;15.30;99.90
20479;DHT22;10398;52.490;13.434;2022-10-16T05:12:40;15.30;99.90
20479;DHT22;10398;52.490;13.434;2022-10-16T05:15:06;15.20;99.90
20479;DHT22;10398;52.490;13.434;2022-10-16T05:17:32;15.20;99.90
20479;DHT22;10398;52.490;13.434;2022-10-16T05:19:58;15.20;99.90
20479;DHT22;10398;52.490;13.434;2022-10-16T05:22:23;15.20;99.90
20479;DHT22;10398;52.490;13.434;2022-10-16T05:24:49;15.20;99.90
20479;DHT22;10398;52.490;13.434;2022-10-16T05:27:14;15.20;99.90
20479;DHT22;10398;52.490;13.434;2022-10-16T05:29:48;15.20;99.90
20479;DHT22;10398;52.490;13.434;2022-10-16T05:32:14;15.20;99.90
20479;DHT22;10398;52.490;13.434;2022-10-16T05:34:40;15.10;99.90
20479;DHT22;10398;52.490;13.434;2022-10-16T05:37:06;15.10;99.90
20479;DHT22;10398;52.490;13.434;2022-10-16T05:39:31;15.00;99.90
20479;DHT22;10398;52.490;13.434;2022-10-16T05:41:57;15.00;99.90
20479;DHT22;10398;52.490;13.434;2022-10-16T05:44:22;15.10;99.90
20479;DHT22;10398;52.490;13.434;2022-10-16T05:46:48;15.00;99.90
20479;DHT22;10398;52.490;13.434;2022-10-16T05:49:14;15.10;99.90
20479;DHT22;10398;52.490;13.434;2022-10-16T05:51:40;15.10;99.90
20479;DHT22;10398;52.490;13.434;2022-10-16T05:54:06;15.00;99.90
20479;DHT22;10398;52.490;13.434;2022-10-16T05:56:32;15.10;99.90
20479;DHT22;10398;52.490;13.434;2022-10-16T05:58:57;15.10;99.90
20479;DHT22;10398;52.490;13.434;2022-10-16T06:01:23;15.10;99.90
20479;DHT22;10398;52.490;13.434;2022-10-16T06:03:50;15.10;99.90
20479;DHT22;10398;52.490;13.434;2022-10-16T06:06:22;15.00;99.90
20479;DHT22;10398;52.490;13.434;2022-10-16T06:08:49;15.00;99.90
20479;DHT22;10398;52.490;13.434;2022-10-16T06:11:17;15.00;99.90
20479;DHT22;10398;52.490;13.434;2022-10-16T06:13:43;15.10;99.90
20479;DHT22;10398;52.490;13.434;2022-10-16T06:16:10;15.00;99.90
20479;DHT22;10398;52.490;13.434;2022-10-16T06:18:35;15.00;99.90
20479;DHT22;10398;52.490;13.434;2022-10-16T06:21:11;15.00;99.90
20479;DHT22;10398;52.490;13.434;2022-10-16T06:23:36;15.10;99.90
20479;DHT22;10398;52.490;13.434;2022-10-16T06:26:11;15.10;99.90
20479;DHT22;10398;52.490;13.434;2022-10-16T06:28:37;15.10;99.90
20479;DHT22;10398;52.490;13.434;2022-10-16T06:31:04;15.00;99.90
20479;DHT22;10398;52.490;13.434;2022-10-16T06:33:30;15.00;99.90
20479;DHT22;10398;52.490;13.434;2022-10-16T06:36:03;15.10;99.90
20479;DHT22;10398;52.490;13.434;2022-10-16T06:38:29;15.10;99.90
20479;DHT22;10398;52.490;13.434;2022-10-16T06:40:55;15.10;99.90
20479;DHT22;10398;52.490;13.434;2022-10-16T06:43:21;15.20;99.90
20479;DHT22;10398;52.490;13.434;2022-10-16T06:45:54;15.20;99.90
20479;DHT22;10398;52.490;13.434;2022-10-16T06:48:20;15.20;99.90
20479;DHT22;10398;52.490;13.434;2022-10-16T06:51:19;15.20;99.90
20479;DHT22;10398;52.490;13.434;2022-10-16T06:53:50;15.30;99.90
20479;DHT22;10398;52.490;13.434;2022-10-16T06:56:18;15.30;99.90
20479;DHT22;10398;52.490;13.434;2022-10-16T06:58:44;15.30;99.90
20479;DHT22;10398;52.490;13.434;2022-10-16T07:01:11;15.40;99.90
20479;DHT22;10398;52.490;13.434;2022-10-16T07:03:41;15.40;99.90
20479;DHT22;10398;52.490;13.434;2022-10-16T07:06:08;15.40;99.90
20479;DHT22;10398;52.490;13.434;2022-10-16T07:08:36;15.40;99.90
20479;DHT22;10398;52.490;13.434;2022-10-16T07:11:04;15.40;99.90
20479;DHT22;10398;52.490;13.434;2022-10-16T07:13:31;15.40;99.90
20479;DHT22;10398;52.490;13.434;2022-10-16T07:15:57;15.50;99.90
20479;DHT22;10398;52.490;13.434;2022-10-16T07:18:23;15.60;99.90
20479;DHT22;10398;52.490;13.434;2022-10-16T07:20:52;15.60;99.90
20479;DHT22;10398;52.490;13.434;2022-10-16T07:23:18;15.70;99.90
20479;DHT22;10398;52.490;13.434;2022-10-16T07:25:43;15.70;99.90
20479;DHT22;10398;52.490;13.434;2022-10-16T07:28:09;15.80;99.90
20479;DHT22;10398;52.490;13.434;2022-10-16T07:30:36;15.80;99.90
20479;DHT22;10398;52.490;13.434;2022-10-16T07:33:02;15.90;99.90
20479;DHT22;10398;52.490;13.434;2022-10-16T07:35:28;15.90;99.90
20479;DHT22;10398;52.490;13.434;2022-10-16T07:37:53;16.00;99.90
20479;DHT22;10398;52.490;13.434;2022-10-16T07:40:19;16.00;99.90
20479;DHT22;10398;52.490;13.434;2022-10-16T07:42:45;16.10;99.90
20479;DHT22;10398;52.490;13.434;2022-10-16T07:45:10;16.10;99.90
20479;DHT22;10398;52.490;13.434;2022-10-16T07:47:36;16.10;99.90
20479;DHT22;10398;52.490;13.434;2022-10-16T07:50:02;16.10;99.90
20479;DHT22;10398;52.490;13.434;2022-10-16T07:52:27;16.10;99.90
20479;DHT22;10398;52.490;13.434;2022-10-16T07:54:53;16.10;99.90
20479;DHT22;10398;52.490;13.434;2022-10-16T07:57:19;16.10;99.90
20479;DHT22;10398;52.490;13.434;2022-10-16T07:59:46;16.20;99.90
20479;DHT22;10398;52.490;13.434;2022-10-16T08:02:12;16.20;99.90
20479;DHT22;10398;52.490;13.434;2022-10-16T08:04:38;16.20;99.90
20479;DHT22;10398;52.490;13.434;2022-10-16T08:07:03;16.20;99.90
20479;DHT22;10398;52.490;13.434;2022-10-16T08:09:29;16.30;99.90
20479;DHT22;10398;52.490;13.434;2022-10-16T08:11:55;16.30;99.90
20479;DHT22;10398;52.490;13.434;2022-10-16T08:14:20;16.40;99.90
20479;DHT22;10398;52.490;13.434;2022-10-16T08:16:46;16.40;99.90
20479;DHT22;10398;52.490;13.434;2022-10-16T08:19:11;16.40;99.90
20479;DHT22;10398;52.490;13.434;2022-10-16T08:21:37;16.40;99.90
20479;DHT22;10398;52.490;13.434;2022-10-16T08:24:02;16.50;99.90
20479;DHT22;10398;52.490;13.434;2022-10-16T08:26:28;16.50;99.90
20479;DHT22;10398;52.490;13.434;2022-10-16T08:28:55;16.50;99.90
20479;DHT22;10398;52.490;13.434;2022-10-16T08:31:20;16.60;99.90
20479;DHT22;10398;52.490;13.434;2022-10-16T08:33:46;16.60;99.90
20479;DHT22;10398;52.490;13.434;2022-10-16T08:36:13;16.60;99.90
20479;DHT22;10398;52.490;13.434;2022-10-16T08:38:39;16.70;99.90
20479;DHT22;10398;52.490;13.434;2022-10-16T08:47:20;16.80;99.90
20479;DHT22;10398;52.490;13.434;2022-10-16T08:50:00;16.90;99.90
20479;DHT22;10398;52.490;13.434;2022-10-16T08:52:30;16.90;99.90
20479;DHT22;10398;52.490;13.434;2022-10-16T08:54:58;16.90;99.90
20479;DHT22;10398;52.490;13.434;2022-10-16T08:57:25;17.00;99.90
20479;DHT22;10398;52.490;13.434;2022-10-16T08:59:52;17.00;99.90
20479;DHT22;10398;52.490;13.434;2022-10-16T09:02:33;17.00;99.90
20479;DHT22;10398;52.490;13.434;2022-10-16T09:13:23;17.10;99.90
20479;DHT22;10398;52.490;13.434;2022-10-16T09:18:40;17.30;99.90
20479;DHT22;10398;52.490;13.434;2022-10-16T09:21:33;17.30;99.90
20479;DHT22;10398;52.490;13.434;2022-10-16T09:24:12;17.50;99.90
20479;DHT22;10398;52.490;13.434;2022-10-16T09:26:38;17.50;99.90
20479;DHT22;10398;52.490;13.434;2022-10-16T09:29:04;17.50;99.90
20479;DHT22;10398;52.490;13.434;2022-10-16T09:31:29;17.60;99.90
20479;DHT22;10398;52.490;13.434;2022-10-16T09:34:00;17.70;99.90
20479;DHT22;10398;52.490;13.434;2022-10-16T09:36:39;17.80;99.90
20479;DHT22;10398;52.490;13.434;2022-10-16T09:39:08;17.90;99.90
20479;DHT22;10398;52.490;13.434;2022-10-16T09:41:36;17.90;99.90
20479;DHT22;10398;52.490;13.434;2022-10-16T09:44:04;18.00;99.90
20479;DHT22;10398;52.490;13.434;2022-10-16T09:46:36;18.00;99.90
20479;DHT22;10398;52.490;13.434;2022-10-16T09:49:24;18.20;99.90
20479;DHT22;10398;52.490;13.434;2022-10-16T09:51:51;18.40;99.90
20479;DHT22;10398;52.490;13.434;2022-10-16T09:54:19;18.50;99.90
20479;DHT22;10398;52.490;13.434;2022-10-16T09:56:45;18.60;99.90
20479;DHT22;10398;52.490;13.434;2022-10-16T09:59:14;18.60;99.90
20479;DHT22;10398;52.490;13.434;2022-10-16T10:01:44;18.50;99.90
20479;DHT22;10398;52.490;13.434;2022-10-16T10:04:11;18.60;99.90
20479;DHT22;10398;52.490;13.434;2022-10-16T10:06:49;18.60;99.90
20479;DHT22;10398;52.490;13.434;2022-10-16T10:09:24;18.80;99.90
20479;DHT22;10398;52.490;13.434;2022-10-16T10:11:52;19.00;99.90
20479;DHT22;10398;52.490;13.434;2022-10-16T10:14:44;19.00;99.90
20479;DHT22;10398;52.490;13.434;2022-10-16T10:20:11;19.00;99.90
20479;DHT22;10398;52.490;13.434;2022-10-16T10:22:42;19.00;99.90
20479;DHT22;10398;52.490;13.434;2022-10-16T10:45:59;19.00;99.90
20479;DHT22;10398;52.490;13.434;2022-10-16T10:48:48;19.20;99.90
20479;DHT22;10398;52.490;13.434;2022-10-16T10:51:40;19.50;99.90
20479;DHT22;10398;52.490;13.434;2022-10-16T11:02:13;20.00;99.90
20479;DHT22;10398;52.490;13.434;2022-10-16T11:07:36;20.10;99.90
20479;DHT22;10398;52.490;13.434;2022-10-16T11:10:13;20.20;99.90
20479;DHT22;10398;52.490;13.434;2022-10-16T11:12:44;20.30;99.90
20479;DHT22;10398;52.490;13.434;2022-10-16T11:15:27;20.50;99.90
20479;DHT22;10398;52.490;13.434;2022-10-16T11:18:06;20.40;99.90
20479;DHT22;10398;52.490;13.434;2022-10-16T11:25:34;20.40;99.90
20479;DHT22;10398;52.490;13.434;2022-10-16T11:30:50;20.30;99.90
20479;DHT22;10398;52.490;13.434;2022-10-16T11:36:03;20.10;99.90
20479;DHT22;10398;52.490;13.434;2022-10-16T11:43:48;20.20;99.90
20479;DHT22;10398;52.490;13.434;2022-10-16T11:46:19;20.30;99.90
20479;DHT22;10398;52.490;13.434;2022-10-16T11:48:57;20.40;99.90
20479;DHT22;10398;52.490;13.434;2022-10-16T11:51:39;20.60;99.90
20479;DHT22;10398;52.490;13.434;2022-10-16T11:56:41;20.80;99.90
20479;DHT22;10398;52.490;13.434;2022-10-16T11:59:33;20.80;99.90
20479;DHT22;10398;52.490;13.434;2022-10-16T12:08:06;20.60;99.90
20479;DHT22;10398;52.490;13.434;2022-10-16T12:10:33;20.50;99.90
20479;DHT22;10398;52.490;13.434;2022-10-16T12:13:04;20.50;99.90
20479;DHT22;10398;52.490;13.434;2022-10-16T12:15:33;20.50;99.90
20479;DHT22;10398;52.490;13.434;2022-10-16T12:18:00;20.60;99.90
20479;DHT22;10398;52.490;13.434;2022-10-16T12:20:28;20.90;99.90
20479;DHT22;10398;52.490;13.434;2022-10-16T12:25:32;21.80;99.90
20479;DHT22;10398;52.490;13.434;2022-10-16T12:28:28;22.10;99.90
20479;DHT22;10398;52.490;13.434;2022-10-16T12:30:58;22.50;99.90
20479;DHT22;10398;52.490;13.434;2022-10-16T12:33:27;22.90;99.90
20479;DHT22;10398;52.490;13.434;2022-10-16T12:35:53;23.30;99.90
20479;DHT22;10398;52.490;13.434;2022-10-16T12:41:06;23.90;99.90
20479;DHT22;10398;52.490;13.434;2022-10-16T12:43:47;24.10;99.90
20479;DHT22;10398;52.490;13.434;2022-10-16T12:48:40;24.20;99.90
20479;DHT22;10398;52.490;13.434;2022-10-16T12:56:38;24.60;99.90
20479;DHT22;10398;52.490;13.434;2022-10-16T12:59:13;24.80;99.90
20479;DHT22;10398;52.490;13.434;2022-10-16T13:04:50;24.70;99.90
20479;DHT22;10398;52.490;13.434;2022-10-16T13:07:37;24.70;99.90
20479;DHT22;10398;52.490;13.434;2022-10-16T13:30:30;23.90;99.90
20479;DHT22;10398;52.490;13.434;2022-10-16T13:33:02;23.60;99.90
20479;DHT22;10398;52.490;13.434;2022-10-16T13:35:31;23.50;99.90
20479;DHT22;10398;52.490;13.434;2022-10-16T13:38:27;23.50;99.90
20479;DHT22;10398;52.490;13.434;2022-10-16T13:40:55;23.30;99.90
20479;DHT22;10398;52.490;13.434;2022-10-16T13:43:45;23.10;99.90
20479;DHT22;10398;52.490;13.434;2022-10-16T13:46:19;22.90;99.90
20479;DHT22;10398;52.490;13.434;2022-10-16T13:48:56;22.90;99.90
20479;DHT22;10398;52.490;13.434;2022-10-16T13:51:22;23.00;99.90
20479;DHT22;10398;52.490;13.434;2022-10-16T13:53:48;22.90;99.90
20479;DHT22;10398;52.490;13.434;2022-10-16T13:56:17;22.90;99.90
20479;DHT22;10398;52.490;13.434;2022-10-16T13:58:44;23.00;99.90
20479;DHT22;10398;52.490;13.434;2022-10-16T14:04:04;22.80;99.90
20479;DHT22;10398;52.490;13.434;2022-10-16T14:06:31;22.90;99.90
20479;DHT22;10398;52.490;13.434;2022-10-16T14:09:07;22.80;99.90
20479;DHT22;10398;52.490;13.434;2022-10-16T14:11:36;22.40;99.90
20479;DHT22;10398;52.490;13.434;2022-10-16T14:14:03;22.40;99.90
20479;DHT22;10398;52.490;13.434;2022-10-16T14:16:31;22.40;99.90
20479;DHT22;10398;52.490;13.434;2022-10-16T14:21:25;22.40;99.90
20479;DHT22;10398;52.490;13.434;2022-10-16T14:23:52;22.40;99.90
20479;DHT22;10398;52.490;13.434;2022-10-16T14:26:21;22.40;99.90
20479;DHT22;10398;52.490;13.434;2022-10-16T14:28:48;22.20;99.90
20479;DHT22;10398;52.490;13.434;2022-10-16T14:31:32;22.20;99.90
20479;DHT22;10398;52.490;13.434;2022-10-16T14:33:59;22.10;99.90
20479;DHT22;10398;52.490;13.434;2022-10-16T14:36:26;22.00;99.90
20479;DHT22;10398;52.490;13.434;2022-10-16T14:39:17;21.90;99.90
20479;DHT22;10398;52.490;13.434;2022-10-16T14:41:47;21.80;99.90
20479;DHT22;10398;52.490;13.434;2022-10-16T14:44:13;21.70;99.90
20479;DHT22;10398;52.490;13.434;2022-10-16T14:46:41;21.60;99.90
20479;DHT22;10398;52.490;13.434;2022-10-16T14:51:41;21.40;99.90
20479;DHT22;10398;52.490;13.434;2022-10-16T14:54:13;21.30;99.90
20479;DHT22;10398;52.490;13.434;2022-10-16T14:56:43;21.20;99.90
20479;DHT22;10398;52.490;13.434;2022-10-16T14:59:19;21.10;99.90
20479;DHT22;10398;52.490;13.434;2022-10-16T15:01:45;21.00;99.90
20479;DHT22;10398;52.490;13.434;2022-10-16T15:04:12;20.90;99.90
20479;DHT22;10398;52.490;13.434;2022-10-16T15:06:38;20.80;99.90
20479;DHT22;10398;52.490;13.434;2022-10-16T15:09:04;20.80;99.90
20479;DHT22;10398;52.490;13.434;2022-10-16T15:11:31;20.70;99.90
20479;DHT22;10398;52.490;13.434;2022-10-16T15:13:57;20.60;99.90
20479;DHT22;10398;52.490;13.434;2022-10-16T15:16:23;20.60;99.90
20479;DHT22;10398;52.490;13.434;2022-10-16T15:18:49;20.50;99.90
20479;DHT22;10398;52.490;13.434;2022-10-16T15:21:27;20.50;99.90
20479;DHT22;10398;52.490;13.434;2022-10-16T15:23:54;20.40;99.90
20479;DHT22;10398;52.490;13.434;2022-10-16T15:26:22;20.30;99.90
20479;DHT22;10398;52.490;13.434;2022-10-16T15:28:48;20.20;99.90
20479;DHT22;10398;52.490;13.434;2022-10-16T15:31:13;20.10;99.90
20479;DHT22;10398;52.490;13.434;2022-10-16T15:33:39;20.10;99.90
20479;DHT22;10398;52.490;13.434;2022-10-16T15:36:05;20.00;99.90
20479;DHT22;10398;52.490;13.434;2022-10-16T15:38:31;20.00;99.90
20479;DHT22;10398;52.490;13.434;2022-10-16T15:40:57;19.90;99.90
20479;DHT22;10398;52.490;13.434;2022-10-16T15:43:22;19.80;99.90
20479;DHT22;10398;52.490;13.434;2022-10-16T15:46:00;19.80;99.90
20479;DHT22;10398;52.490;13.434;2022-10-16T15:48:26;19.70;99.90
20479;DHT22;10398;52.490;13.434;2022-10-16T15:50:52;19.70;99.90
20479;DHT22;10398;52.490;13.434;2022-10-16T15:53:18;19.70;99.90
20479;DHT22;10398;52.490;13.434;2022-10-16T15:55:43;19.60;99.90
20479;DHT22;10398;52.490;13.434;2022-10-16T15:58:09;19.50;99.90
20479;DHT22;10398;52.490;13.434;2022-10-16T16:00:34;19.50;99.90
20479;DHT22;10398;52.490;13.434;2022-10-16T16:03:00;19.50;99.90
20479;DHT22;10398;52.490;13.434;2022-10-16T16:05:26;19.40;99.90
20479;DHT22;10398;52.490;13.434;2022-10-16T16:07:52;19.30;99.90
20479;DHT22;10398;52.490;13.434;2022-10-16T16:10:19;19.30;99.90
20479;DHT22;10398;52.490;13.434;2022-10-16T16:12:47;19.20;99.90
20479;DHT22;10398;52.490;13.434;2022-10-16T16:15:17;19.10;99.90
20479;DHT22;10398;52.490;13.434;2022-10-16T16:17:43;19.10;99.90
20479;DHT22;10398;52.490;13.434;2022-10-16T16:20:10;19.00;99.90
20479;DHT22;10398;52.490;13.434;2022-10-16T16:22:35;19.00;99.90
20479;DHT22;10398;52.490;13.434;2022-10-16T16:25:01;18.90;99.90
20479;DHT22;10398;52.490;13.434;2022-10-16T16:27:27;18.90;99.90
20479;DHT22;10398;52.490;13.434;2022-10-16T16:29:55;18.80;99.90
20479;DHT22;10398;52.490;13.434;2022-10-16T16:32:20;18.80;99.90
20479;DHT22;10398;52.490;13.434;2022-10-16T16:34:46;18.70;99.90
20479;DHT22;10398;52.490;13.434;2022-10-16T16:37:12;18.70;99.90
20479;DHT22;10398;52.490;13.434;2022-10-16T16:39:38;18.60;99.90
20479;DHT22;10398;52.490;13.434;2022-10-16T16:42:03;18.60;99.90
20479;DHT22;10398;52.490;13.434;2022-10-16T16:44:31;18.50;99.90
20479;DHT22;10398;52.490;13.434;2022-10-16T16:46:57;18.50;99.90
20479;DHT22;10398;52.490;13.434;2022-10-16T16:49:23;18.40;99.90
20479;DHT22;10398;52.490;13.434;2022-10-16T16:51:48;18.30;99.90
20479;DHT22;10398;52.490;13.434;2022-10-16T16:54:14;18.30;99.90
20479;DHT22;10398;52.490;13.434;2022-10-16T16:56:40;18.20;99.90
20479;DHT22;10398;52.490;13.434;2022-10-16T16:59:16;18.10;99.90
20479;DHT22;10398;52.490;13.434;2022-10-16T17:01:43;18.00;99.90
20479;DHT22;10398;52.490;13.434;2022-10-16T17:04:10;17.90;99.90
20479;DHT22;10398;52.490;13.434;2022-10-16T17:06:36;17.90;99.90
20479;DHT22;10398;52.490;13.434;2022-10-16T17:09:03;17.80;99.90
20479;DHT22;10398;52.490;13.434;2022-10-16T17:11:30;17.80;99.90
20479;DHT22;10398;52.490;13.434;2022-10-16T17:13:57;17.70;99.90
20479;DHT22;10398;52.490;13.434;2022-10-16T17:16:32;17.60;99.90
20479;DHT22;10398;52.490;13.434;2022-10-16T17:19:00;17.50;99.90
20479;DHT22;10398;52.490;13.434;2022-10-16T17:21:26;17.50;99.90
20479;DHT22;10398;52.490;13.434;2022-10-16T17:23:54;17.40;99.90
20479;DHT22;10398;52.490;13.434;2022-10-16T17:26:21;17.40;99.90
20479;DHT22;10398;52.490;13.434;2022-10-16T17:28:54;17.30;99.90
20479;DHT22;10398;52.490;13.434;2022-10-16T17:31:24;17.30;99.90
20479;DHT22;10398;52.490;13.434;2022-10-16T17:33:50;17.30;99.90
20479;DHT22;10398;52.490;13.434;2022-10-16T17:36:16;17.20;99.90
20479;DHT22;10398;52.490;13.434;2022-10-16T17:38:42;17.20;99.90
20479;DHT22;10398;52.490;13.434;2022-10-16T17:41:20;17.10;99.90
20479;DHT22;10398;52.490;13.434;2022-10-16T17:43:46;17.10;99.90